Hauptseite
METAR-TAF:

METAR-TAF

Flughäfen :

Memmingen, Deutschland

Breite: 47-59-33N, Länge: 10-14-37E, Höhe: 633 m

Beobachtung

Neuester Wetterbericht von vor 11 Minuten, um 11:50 UTC
Wind 3 kt aus unterschiedlichen Richtungen
Temperatur 18°C
Luftfeuchtigkeit 56%
Luftdruck 1025 hPa
Sichtweite 10 km oder mehr
Leicht bewölkt in der Höhe von 3500 ft
Durchbrochene Bewölkung in der Höhe von 13000 ft

METAR: EDJA 211150Z VRB03KT 9999 FEW035 BKN130 18/09 Q1025

Zeit: 14:01 (12:01 UTC)

Prognose

Neuester Wetterbericht von vor 1 Stunde und 1 Minuten, um 11:00 UTC
Gültige Prognose vom 21 um 12 UTC bis 21 um 21 UTC
Wind 3 kt aus unterschiedlichen Richtungen
Sichtweite 10 km oder mehr
Leicht bewölkt in der Höhe von 4000 ft
Zeitweise
vom 21 um 12 UTC bis 21 um 17 UTC
Wind 5 kt aus West/Nordwest

TAF: EDJA 211100Z 2112/2121 VRB03KT 9999 FEW040 TEMPO 2112/2117 30005KT

Wetterbeobachtungen und Prognosen von mehr als 4000 Flughäfen (METAR und TAF Bericht).

Die verfügbaren Stationen werden durch gelbe und rote Markierungen auf der Karte dargestellt.

Führen Sie die Maus auf sie, um den Namen der Station zu sehen.

Darauf klicken, um die Beobachtung von Wetterbeobachtungen und Prognosen zu sehen.

Um die Karte zu ändern : klicken Sie auf den grünen Tasten mit einem schwarzen Kreuz Zum Vergrößern, auf den grünen Button mit einem Gedankenstrich zu verkleinern, oder auf die grünen Pfeile für benachbarte Karten.


METAR-TAF: